Time;durP1;ratioP1;P1;durP2;ratioP2;P2;SDS_P1;SDS_P2;PMS_P1;PMS_P2;Temp;Humidity;BMP_temperature;BMP_pressure;BME280_temperature;BME280_humidity;BME280_pressure;Samples;Min_cycle;Max_cycle;Signal;HPM_P1;HPM_P2
2024/03/18 00:00:14;;;;;;;2.05;1.00;;;;;;;;;;5071907;28;20388;-52
2024/03/18 00:02:40;;;;;;;2.40;1.13;;;;;;;;;;5067968;28;20060;-57
2024/03/18 00:05:07;;;;;;;2.13;0.90;;;;;;;;;;5071255;28;20066;-59
2024/03/18 00:07:32;;;;;;;3.83;1.40;;;;;;;;;;5070882;28;20531;-58
2024/03/18 00:09:57;;;;;;;1.80;1.02;;;;;;;;;;5070494;28;20116;-58
2024/03/18 00:12:23;;;;;;;2.20;1.10;;;;;;;;;;5071455;28;20075;-50
2024/03/18 00:14:49;;;;;;;2.13;1.00;;;;;;;;;;5071060;28;20028;-53
2024/03/18 00:17:14;;;;;;;1.92;0.93;;;;;;;;;;5071475;28;20039;-61
2024/03/18 00:19:39;;;;;;;2.28;1.15;;;;;;;;;;5071013;28;20140;-60
2024/03/18 00:22:07;;;;;;;2.88;1.27;;;;;;;;;;5070948;28;20468;-59
2024/03/18 00:24:33;;;;;;;2.40;1.10;;;;;;;;;;5070568;28;20044;-59
2024/03/18 00:26:59;;;;;;;2.03;1.10;;;;;;;;;;5071107;28;20069;-60
2024/03/18 00:29:25;;;;;;;2.05;1.00;;;;;;;;;;5070525;28;20027;-60
2024/03/18 00:31:50;;;;;;;3.60;0.98;;;;;;;;;;5053170;28;20036;-59
2024/03/18 00:34:15;;;;;;;1.98;1.08;;;;;;;;;;5070156;28;20637;-52
2024/03/18 00:36:41;;;;;;;2.33;1.10;;;;;;;;;;5070838;28;20044;-53
2024/03/18 00:39:06;;;;;;;3.20;1.30;;;;;;;;;;5070624;28;20062;-51
2024/03/18 00:41:45;;;;;;;2.00;1.00;;;;;;;;;;5070086;28;20044;-53
2024/03/18 00:44:12;;;;;;;2.10;1.20;;;;;;;;;;5070703;28;20495;-49
2024/03/18 00:46:37;;;;;;;1.88;0.93;;;;;;;;;;5070969;28;20040;-53
2024/03/18 00:49:04;;;;;;;2.17;0.98;;;;;;;;;;5070423;28;20399;-53
2024/03/18 00:51:29;;;;;;;2.22;0.90;;;;;;;;;;5070484;28;20130;-52
2024/03/18 00:53:55;;;;;;;2.33;1.00;;;;;;;;;;5070441;28;20060;-49
2024/03/18 00:56:20;;;;;;;2.60;1.23;;;;;;;;;;5070554;28;20516;-53
2024/03/18 00:58:46;;;;;;;2.15;1.02;;;;;;;;;;5069654;28;20123;-53
2024/03/18 01:01:11;;;;;;;2.00;0.95;;;;;;;;;;5070694;28;20063;-49
2024/03/18 01:03:37;;;;;;;2.10;1.00;;;;;;;;;;5070251;28;20098;-53
2024/03/18 01:06:03;;;;;;;2.53;1.23;;;;;;;;;;5069834;28;20104;-54
2024/03/18 01:08:28;;;;;;;2.80;1.20;;;;;;;;;;5068072;28;20653;-56
2024/03/18 01:10:53;;;;;;;3.13;1.10;;;;;;;;;;5070516;28;20029;-59
2024/03/18 01:13:19;;;;;;;1.75;0.90;;;;;;;;;;5069503;28;20123;-59
2024/03/18 01:15:44;;;;;;;2.65;1.00;;;;;;;;;;5068454;28;20488;-58
2024/03/18 01:18:10;;;;;;;2.67;1.10;;;;;;;;;;5069768;28;20055;-59
2024/03/18 01:20:38;;;;;;;1.98;1.00;;;;;;;;;;5069438;28;20070;-53
2024/03/18 01:23:04;;;;;;;1.90;0.93;;;;;;;;;;5069630;28;20039;-52
2024/03/18 01:25:30;;;;;;;2.05;0.95;;;;;;;;;;5051874;28;20097;-54
2024/03/18 01:27:55;;;;;;;2.42;1.20;;;;;;;;;;5069760;28;20387;-49
2024/03/18 01:30:21;;;;;;;2.13;1.05;;;;;;;;;;5070261;28;20040;-53
2024/03/18 01:32:47;;;;;;;2.58;1.27;;;;;;;;;;5069750;28;20024;-55
2024/03/18 01:35:12;;;;;;;2.20;1.00;;;;;;;;;;5052420;28;20083;-54
2024/03/18 01:37:38;;;;;;;2.30;1.02;;;;;;;;;;5069039;28;20040;-54
2024/03/18 01:40:06;;;;;;;2.20;1.10;;;;;;;;;;5069203;28;20040;-55
2024/03/18 01:42:32;;;;;;;1.75;0.90;;;;;;;;;;5069975;28;20032;-53
2024/03/18 01:44:57;;;;;;;1.42;0.75;;;;;;;;;;5070047;28;20049;-52
2024/03/18 01:47:23;;;;;;;2.22;1.05;;;;;;;;;;5069914;28;20024;-53
2024/03/18 01:49:52;;;;;;;2.65;1.00;;;;;;;;;;5070090;28;20031;-50
2024/03/18 01:52:21;;;;;;;1.73;0.90;;;;;;;;;;5069334;28;20115;-51
2024/03/18 01:54:47;;;;;;;2.28;1.05;;;;;;;;;;5069519;28;20032;-53
2024/03/18 01:57:13;;;;;;;2.35;1.10;;;;;;;;;;5070023;28;20032;-53
2024/03/18 01:59:38;;;;;;;1.88;0.98;;;;;;;;;;5069708;28;20052;-54
2024/03/18 02:02:04;;;;;;;2.15;1.00;;;;;;;;;;5069777;28;20029;-54
2024/03/18 02:04:30;;;;;;;2.38;1.15;;;;;;;;;;5070110;28;20452;-54
2024/03/18 02:06:56;;;;;;;2.10;1.00;;;;;;;;;;5069207;28;20540;-50
2024/03/18 02:09:24;;;;;;;2.25;1.25;;;;;;;;;;5069054;28;20095;-54
2024/03/18 02:11:50;;;;;;;1.88;0.93;;;;;;;;;;5069758;28;20557;-55
2024/03/18 02:14:16;;;;;;;2.15;1.10;;;;;;;;;;5069810;28;20184;-52
2024/03/18 02:16:42;;;;;;;2.72;0.95;;;;;;;;;;5069018;28;20040;-52
2024/03/18 02:19:08;;;;;;;2.00;1.08;;;;;;;;;;5069317;28;20048;-52
2024/03/18 02:21:33;;;;;;;1.75;1.00;;;;;;;;;;5051427;28;20044;-51
2024/03/18 02:23:59;;;;;;;2.00;1.00;;;;;;;;;;5068497;28;20565;-50
2024/03/18 02:26:24;;;;;;;2.00;0.90;;;;;;;;;;5068173;28;20033;-51
2024/03/18 02:28:51;;;;;;;1.90;0.80;;;;;;;;;;5069682;28;20036;-54
2024/03/18 02:31:17;;;;;;;2.35;1.05;;;;;;;;;;5069273;28;20052;-51
2024/03/18 02:33:43;;;;;;;2.28;1.00;;;;;;;;;;5069329;28;20060;-54
2024/03/18 02:36:08;;;;;;;2.17;1.02;;;;;;;;;;5051747;28;20436;-53
2024/03/18 02:38:34;;;;;;;2.67;1.17;;;;;;;;;;5068355;28;20606;-54
2024/03/18 02:40:59;;;;;;;2.42;1.00;;;;;;;;;;5069512;28;20503;-52
2024/03/18 02:43:25;;;;;;;2.33;1.10;;;;;;;;;;5069712;28;20186;-52
2024/03/18 02:45:50;;;;;;;1.88;0.90;;;;;;;;;;5069386;28;20035;-54
2024/03/18 02:48:18;;;;;;;1.60;0.90;;;;;;;;;;5068758;28;20649;-55
2024/03/18 02:50:43;;;;;;;1.48;0.80;;;;;;;;;;5069646;28;20043;-50
2024/03/18 02:53:09;;;;;;;1.83;0.90;;;;;;;;;;5071603;28;20041;-55
2024/03/18 02:55:35;;;;;;;2.20;1.00;;;;;;;;;;5072535;28;20040;-56
2024/03/18 02:58:00;;;;;;;1.73;0.90;;;;;;;;;;5072938;28;20056;-48
2024/03/18 03:00:26;;;;;;;1.73;0.95;;;;;;;;;;5072093;28;20626;-52
2024/03/18 03:02:52;;;;;;;2.17;1.02;;;;;;;;;;5072061;28;20032;-52
2024/03/18 03:05:17;;;;;;;2.08;0.90;;;;;;;;;;5072919;28;20044;-50
2024/03/18 03:07:42;;;;;;;2.40;0.95;;;;;;;;;;5072718;28;20427;-50
2024/03/18 03:10:08;;;;;;;2.15;1.13;;;;;;;;;;5072208;28;20446;-51
2024/03/18 03:12:34;;;;;;;1.65;0.90;;;;;;;;;;5072568;28;20036;-55
2024/03/18 03:15:00;;;;;;;1.60;0.98;;;;;;;;;;5072738;28;20090;-51
2024/03/18 03:17:26;;;;;;;2.20;1.10;;;;;;;;;;5072238;28;20035;-52
2024/03/18 03:19:51;;;;;;;3.15;1.20;;;;;;;;;;5072419;28;20048;-49
2024/03/18 03:22:19;;;;;;;2.17;1.10;;;;;;;;;;5070937;28;20703;-54
2024/03/18 03:24:47;;;;;;;2.45;1.02;;;;;;;;;;5071430;28;20115;-53
2024/03/18 03:27:16;;;;;;;2.15;1.08;;;;;;;;;;5072004;28;20090;-49
2024/03/18 03:29:42;;;;;;;2.13;1.00;;;;;;;;;;5072176;28;20475;-54
2024/03/18 03:32:10;;;;;;;1.90;0.80;;;;;;;;;;5072524;28;20033;-55
2024/03/18 03:34:37;;;;;;;1.92;0.90;;;;;;;;;;5069889;28;20044;-55
2024/03/18 03:37:02;;;;;;;1.73;0.88;;;;;;;;;;5072103;28;20040;-52
2024/03/18 03:39:28;;;;;;;2.72;1.00;;;;;;;;;;5071942;28;20028;-51
2024/03/18 03:41:53;;;;;;;2.10;1.05;;;;;;;;;;5071673;28;20115;-52
2024/03/18 03:44:19;;;;;;;2.35;1.05;;;;;;;;;;5072401;28;20082;-52
2024/03/18 03:46:44;;;;;;;2.53;1.15;;;;;;;;;;5072398;28;20024;-51
2024/03/18 03:49:09;;;;;;;1.73;0.85;;;;;;;;;;5071779;28;20036;-50
2024/03/18 03:51:35;;;;;;;1.88;0.90;;;;;;;;;;5071518;28;20101;-53
2024/03/18 03:54:00;;;;;;;2.20;1.00;;;;;;;;;;5071698;28;20464;-58
2024/03/18 03:56:25;;;;;;;1.88;0.90;;;;;;;;;;5071904;28;20040;-58
2024/03/18 03:58:52;;;;;;;1.65;0.82;;;;;;;;;;5071384;28;20549;-59
2024/03/18 04:01:21;;;;;;;2.25;1.15;;;;;;;;;;5071441;28;20032;-56
2024/03/18 04:03:47;;;;;;;1.65;0.80;;;;;;;;;;5070613;28;20522;-58
2024/03/18 04:06:13;;;;;;;1.63;0.90;;;;;;;;;;5070747;28;20110;-60
2024/03/18 04:08:38;;;;;;;1.48;0.80;;;;;;;;;;5071347;28;20032;-54
2024/03/18 04:11:04;;;;;;;1.77;1.00;;;;;;;;;;5071834;28;20048;-52
2024/03/18 04:13:30;;;;;;;2.10;0.90;;;;;;;;;;5071271;28;20033;-52
2024/03/18 04:15:56;;;;;;;1.88;0.88;;;;;;;;;;5071024;28;20039;-52
2024/03/18 04:18:22;;;;;;;1.65;0.80;;;;;;;;;;5071649;28;20048;-53
2024/03/18 04:20:48;;;;;;;1.50;0.80;;;;;;;;;;5070912;28;20052;-55
2024/03/18 04:23:14;;;;;;;2.40;1.17;;;;;;;;;;5071357;28;20032;-50
2024/03/18 04:25:40;;;;;;;2.58;1.08;;;;;;;;;;5069857;28;20032;-54
2024/03/18 04:28:08;;;;;;;2.03;0.90;;;;;;;;;;5071027;28;20051;-53
2024/03/18 04:30:35;;;;;;;2.20;0.98;;;;;;;;;;5071200;28;20032;-51
2024/03/18 04:33:01;;;;;;;1.70;0.80;;;;;;;;;;5067135;28;20028;-50
2024/03/18 04:35:26;;;;;;;2.10;1.00;;;;;;;;;;5071279;28;20123;-53
2024/03/18 04:37:51;;;;;;;2.08;0.82;;;;;;;;;;5070373;28;20124;-50
2024/03/18 04:40:18;;;;;;;2.00;0.80;;;;;;;;;;5070517;28;20648;-54
2024/03/18 04:42:44;;;;;;;1.23;0.80;;;;;;;;;;5070836;28;20115;-56
2024/03/18 04:45:11;;;;;;;2.20;0.85;;;;;;;;;;5070578;28;20161;-56
2024/03/18 04:47:39;;;;;;;1.83;0.88;;;;;;;;;;5052203;28;20032;-55
2024/03/18 04:50:09;;;;;;;1.77;0.90;;;;;;;;;;5070997;28;20039;-54
2024/03/18 04:52:35;;;;;;;1.55;0.80;;;;;;;;;;5068857;28;20077;-53
2024/03/18 04:55:02;;;;;;;1.73;0.80;;;;;;;;;;5070839;28;20036;-54
2024/03/18 04:57:28;;;;;;;1.77;0.80;;;;;;;;;;5070367;28;20047;-54
2024/03/18 04:59:53;;;;;;;2.03;1.00;;;;;;;;;;5069097;28;20380;-51
2024/03/18 05:02:18;;;;;;;1.25;0.70;;;;;;;;;;5069973;28;20472;-52
2024/03/18 05:04:44;;;;;;;3.22;1.10;;;;;;;;;;5070243;28;20131;-52
2024/03/18 05:07:09;;;;;;;1.88;0.90;;;;;;;;;;5070260;28;20423;-52
2024/03/18 05:09:35;;;;;;;2.28;0.82;;;;;;;;;;5070144;28;20051;-54
2024/03/18 05:12:00;;;;;;;1.85;0.80;;;;;;;;;;5070096;28;20029;-49
2024/03/18 05:14:25;;;;;;;2.30;0.90;;;;;;;;;;5070756;28;20107;-53
2024/03/18 05:16:51;;;;;;;1.65;0.80;;;;;;;;;;5069856;28;20037;-51
2024/03/18 05:19:16;;;;;;;1.77;0.80;;;;;;;;;;5070078;28;20049;-56
2024/03/18 05:21:42;;;;;;;1.92;0.80;;;;;;;;;;5069834;28;20040;-55
2024/03/18 05:24:07;;;;;;;2.70;1.00;;;;;;;;;;5069779;28;20083;-53
2024/03/18 05:26:32;;;;;;;1.25;0.60;;;;;;;;;;5070388;28;20190;-50
2024/03/18 05:28:57;;;;;;;1.45;0.73;;;;;;;;;;5068688;28;20043;-54
2024/03/18 05:31:23;;;;;;;1.60;0.70;;;;;;;;;;5069897;28;20044;-54
2024/03/18 05:33:48;;;;;;;3.15;0.88;;;;;;;;;;5069822;28;20048;-52
2024/03/18 05:36:13;;;;;;;1.70;0.80;;;;;;;;;;5069886;28;20035;-53
2024/03/18 05:38:39;;;;;;;3.05;0.80;;;;;;;;;;5070114;28;20044;-55
2024/03/18 05:41:04;;;;;;;1.70;0.90;;;;;;;;;;5069808;28;20039;-54
2024/03/18 05:43:30;;;;;;;1.85;0.75;;;;;;;;;;5070123;28;20031;-52
2024/03/18 05:45:55;;;;;;;2.55;0.82;;;;;;;;;;5070006;28;20115;-53
2024/03/18 05:48:20;;;;;;;1.20;0.65;;;;;;;;;;5069485;28;20082;-56
2024/03/18 05:50:46;;;;;;;1.50;0.80;;;;;;;;;;5069977;28;20090;-55
2024/03/18 05:53:11;;;;;;;1.50;0.80;;;;;;;;;;5069778;28;20090;-54
2024/03/18 05:55:36;;;;;;;2.33;0.90;;;;;;;;;;5069818;28;20527;-52
2024/03/18 05:58:03;;;;;;;3.42;1.00;;;;;;;;;;5070070;28;20033;-55
2024/03/18 06:00:32;;;;;;;1.52;0.80;;;;;;;;;;5069819;28;20032;-54
2024/03/18 06:02:57;;;;;;;1.50;0.80;;;;;;;;;;5065611;28;20035;-53
2024/03/18 06:05:22;;;;;;;2.65;0.75;;;;;;;;;;5069491;28;20021;-54
2024/03/18 06:07:48;;;;;;;2.40;0.80;;;;;;;;;;5069824;28;20047;-54
2024/03/18 06:10:16;;;;;;;1.27;0.70;;;;;;;;;;5069709;28;20468;-51
2024/03/18 06:12:41;;;;;;;1.13;0.65;;;;;;;;;;5069509;28;20086;-53
2024/03/18 06:15:07;;;;;;;1.08;0.60;;;;;;;;;;5069957;28;20040;-52
2024/03/18 06:17:32;;;;;;;1.25;0.70;;;;;;;;;;5069380;28;20079;-55
2024/03/18 06:19:58;;;;;;;1.15;0.80;;;;;;;;;;5069474;28;20083;-56
2024/03/18 06:22:26;;;;;;;2.38;0.90;;;;;;;;;;5069489;28;20036;-51
2024/03/18 06:27:35;;;;;;;1.70;0.80;;;;;;;;;;5071141;28;20172;-53
2024/03/18 06:30:02;;;;;;;1.30;0.75;;;;;;;;;;5071119;28;20037;-54
2024/03/18 06:32:27;;;;;;;1.23;0.75;;;;;;;;;;5073122;28;20035;-56
2024/03/18 06:34:53;;;;;;;1.35;0.70;;;;;;;;;;5073092;28;20115;-51
2024/03/18 06:37:18;;;;;;;1.95;0.80;;;;;;;;;;5072926;28;20111;-54
2024/03/18 06:39:43;;;;;;;1.48;0.70;;;;;;;;;;5073372;28;20029;-51
2024/03/18 06:42:09;;;;;;;1.75;0.80;;;;;;;;;;5073157;28;20082;-54
2024/03/18 06:44:34;;;;;;;2.03;0.77;;;;;;;;;;5072805;28;20071;-54
2024/03/18 06:47:00;;;;;;;2.00;0.73;;;;;;;;;;5072950;28;20040;-52
2024/03/18 06:49:25;;;;;;;1.92;0.80;;;;;;;;;;5072637;28;20115;-54
2024/03/18 06:51:51;;;;;;;1.85;0.90;;;;;;;;;;5072449;28;20044;-51
2024/03/18 06:54:16;;;;;;;1.98;0.80;;;;;;;;;;5073130;28;20035;-52
2024/03/18 06:56:42;;;;;;;2.53;0.88;;;;;;;;;;5072807;28;20123;-55
2024/03/18 06:59:07;;;;;;;1.13;0.63;;;;;;;;;;5072783;28;20029;-50
2024/03/18 07:01:33;;;;;;;1.70;0.80;;;;;;;;;;5072013;28;21001;-56
2024/03/18 07:03:58;;;;;;;1.77;0.68;;;;;;;;;;5072672;28;20115;-51
2024/03/18 07:06:23;;;;;;;1.77;0.68;;;;;;;;;;5071966;28;20044;-59
2024/03/18 07:08:49;;;;;;;2.47;0.70;;;;;;;;;;5072705;28;20060;-58
2024/03/18 07:11:14;;;;;;;1.48;0.65;;;;;;;;;;5072727;28;20059;-59
2024/03/18 07:13:40;;;;;;;2.13;0.70;;;;;;;;;;5072719;28;20536;-59
2024/03/18 07:16:06;;;;;;;1.65;0.77;;;;;;;;;;5071995;28;20032;-60
2024/03/18 07:18:32;;;;;;;1.30;0.68;;;;;;;;;;5072498;28;20518;-59
2024/03/18 07:20:57;;;;;;;1.58;0.60;;;;;;;;;;5072371;28;20052;-61
2024/03/18 07:23:23;;;;;;;1.83;0.70;;;;;;;;;;5072265;28;20036;-60
2024/03/18 07:25:50;;;;;;;1.98;0.80;;;;;;;;;;5072522;28;20115;-60
2024/03/18 07:28:15;;;;;;;1.67;0.80;;;;;;;;;;5072447;28;20512;-58
2024/03/18 07:30:47;;;;;;;1.75;0.73;;;;;;;;;;5071552;28;20050;-52
2024/03/18 07:33:13;;;;;;;1.55;0.70;;;;;;;;;;5072147;28;20068;-54
2024/03/18 07:35:39;;;;;;;1.60;0.80;;;;;;;;;;5071662;28;20068;-50
2024/03/18 07:38:04;;;;;;;2.45;0.77;;;;;;;;;;5069692;28;20606;-54
2024/03/18 07:40:30;;;;;;;2.45;0.73;;;;;;;;;;5072126;28;20384;-52
2024/03/18 07:42:56;;;;;;;3.17;0.70;;;;;;;;;;5072094;28;20085;-55
2024/03/18 07:45:21;;;;;;;1.33;0.65;;;;;;;;;;5071780;28;20033;-55
2024/03/18 07:47:47;;;;;;;1.30;0.65;;;;;;;;;;5071972;28;20044;-54
2024/03/18 07:50:12;;;;;;;1.77;0.80;;;;;;;;;;5072232;28;20025;-52
2024/03/18 07:52:37;;;;;;;2.10;0.70;;;;;;;;;;5070525;28;20033;-53
2024/03/18 07:55:03;;;;;;;0.98;0.60;;;;;;;;;;5071012;28;20048;-59
2024/03/18 07:57:28;;;;;;;2.53;1.05;;;;;;;;;;5071110;28;20094;-60
2024/03/18 07:59:54;;;;;;;1.23;0.60;;;;;;;;;;5070518;28;20036;-59
2024/03/18 08:02:19;;;;;;;2.90;0.80;;;;;;;;;;5070067;28;20028;-59
2024/03/18 08:04:45;;;;;;;1.05;0.65;;;;;;;;;;5071377;28;20048;-59
2024/03/18 08:07:11;;;;;;;1.73;0.80;;;;;;;;;;5070669;28;20028;-58
2024/03/18 08:09:36;;;;;;;1.63;0.68;;;;;;;;;;5070550;28;20475;-58
2024/03/18 08:12:02;;;;;;;1.77;0.93;;;;;;;;;;5071709;28;20055;-58
2024/03/18 08:14:27;;;;;;;1.67;0.80;;;;;;;;;;5071454;28;20024;-58
2024/03/18 08:16:54;;;;;;;1.83;0.80;;;;;;;;;;5070129;28;20805;-60
2024/03/18 08:19:20;;;;;;;1.15;0.60;;;;;;;;;;5070392;28;20131;-55
2024/03/18 08:21:46;;;;;;;1.25;0.68;;;;;;;;;;5071243;28;20036;-55
2024/03/18 08:24:11;;;;;;;3.22;0.85;;;;;;;;;;5071275;28;20117;-49
2024/03/18 08:26:36;;;;;;;1.77;0.70;;;;;;;;;;5071114;28;20349;-52
2024/03/18 08:29:02;;;;;;;1.98;0.82;;;;;;;;;;5071482;28;20561;-54
2024/03/18 08:31:29;;;;;;;1.60;0.80;;;;;;;;;;5071608;28;20422;-53
2024/03/18 08:33:55;;;;;;;1.92;0.75;;;;;;;;;;5070510;28;20082;-54
2024/03/18 08:36:21;;;;;;;3.25;0.70;;;;;;;;;;5070550;28;20033;-54
2024/03/18 08:38:47;;;;;;;1.40;1.00;;;;;;;;;;5069994;28;20468;-54
2024/03/18 08:41:13;;;;;;;1.30;0.68;;;;;;;;;;5066739;28;20037;-60
2024/03/18 08:43:38;;;;;;;1.63;0.75;;;;;;;;;;5070761;28;20541;-59
2024/03/18 08:46:07;;;;;;;2.05;0.80;;;;;;;;;;5070860;28;20407;-59
2024/03/18 08:48:34;;;;;;;3.47;0.80;;;;;;;;;;5069389;28;20041;-58
2024/03/18 08:50:59;;;;;;;1.42;0.65;;;;;;;;;;5068452;28;20494;-59
2024/03/18 08:53:25;;;;;;;2.47;0.75;;;;;;;;;;5070879;28;20024;-60
2024/03/18 08:55:50;;;;;;;2.28;0.70;;;;;;;;;;5068348;28;20611;-60
2024/03/18 08:58:18;;;;;;;1.70;0.70;;;;;;;;;;5068762;28;20028;-61
2024/03/18 09:00:45;;;;;;;1.40;0.60;;;;;;;;;;5066860;28;20083;-57
2024/03/18 09:03:10;;;;;;;0.90;0.57;;;;;;;;;;5069709;28;20044;-51
2024/03/18 09:05:36;;;;;;;1.20;0.60;;;;;;;;;;5068148;28;20033;-54
2024/03/18 09:08:01;;;;;;;4.47;1.00;;;;;;;;;;5069429;28;20071;-60
2024/03/18 09:10:27;;;;;;;1.83;0.88;;;;;;;;;;5042391;28;20119;-59
2024/03/18 09:12:53;;;;;;;2.65;0.70;;;;;;;;;;5065239;28;20050;-59
2024/03/18 09:15:18;;;;;;;2.63;0.80;;;;;;;;;;5066208;28;20052;-62
2024/03/18 09:17:44;;;;;;;3.35;0.60;;;;;;;;;;5063930;28;20036;-57
2024/03/18 09:20:10;;;;;;;2.55;0.70;;;;;;;;;;5065407;28;20041;-62
2024/03/18 09:22:38;;;;;;;2.33;0.88;;;;;;;;;;5065532;28;20032;-62
2024/03/18 09:25:06;;;;;;;3.92;0.80;;;;;;;;;;5065784;28;20064;-59
2024/03/18 09:27:33;;;;;;;1.83;0.70;;;;;;;;;;5066213;28;20032;-62
2024/03/18 09:29:58;;;;;;;3.00;0.70;;;;;;;;;;5068643;28;20082;-57
2024/03/18 09:32:23;;;;;;;2.53;0.80;;;;;;;;;;5066061;28;20036;-60
2024/03/18 09:34:50;;;;;;;1.80;0.63;;;;;;;;;;5061801;28;20033;-58
2024/03/18 09:37:16;;;;;;;2.70;0.90;;;;;;;;;;5059261;28;20036;-59
2024/03/18 09:39:41;;;;;;;3.70;0.90;;;;;;;;;;5062596;28;20106;-57
2024/03/18 09:42:07;;;;;;;2.35;0.98;;;;;;;;;;5066402;28;20424;-58
2024/03/18 09:44:35;;;;;;;1.30;0.70;;;;;;;;;;5065489;28;20522;-59
2024/03/18 09:47:00;;;;;;;3.65;1.00;;;;;;;;;;5066016;28;20479;-59
2024/03/18 09:49:26;;;;;;;2.50;0.73;;;;;;;;;;5066113;28;20048;-60
2024/03/18 09:51:51;;;;;;;2.40;0.73;;;;;;;;;;5064504;28;20025;-58
2024/03/18 09:54:18;;;;;;;3.13;0.88;;;;;;;;;;5066282;28;20041;-60
2024/03/18 09:56:51;;;;;;;2.42;0.80;;;;;;;;;;5066849;28;20024;-58
2024/03/18 09:59:17;;;;;;;5.20;1.00;;;;;;;;;;5048261;28;20052;-59
2024/03/18 10:01:43;;;;;;;2.30;0.70;;;;;;;;;;5062058;28;20169;-57
2024/03/18 10:04:08;;;;;;;1.95;0.70;;;;;;;;;;5069096;28;20418;-57
2024/03/18 10:06:34;;;;;;;2.63;0.80;;;;;;;;;;5069300;28;20145;-59
2024/03/18 10:08:59;;;;;;;1.95;0.75;;;;;;;;;;5068092;28;20047;-58
2024/03/18 10:11:25;;;;;;;4.88;0.88;;;;;;;;;;5069661;28;20622;-59
2024/03/18 10:13:50;;;;;;;1.75;0.70;;;;;;;;;;5069341;28;20230;-61
2024/03/18 10:16:16;;;;;;;2.55;0.55;;;;;;;;;;5069056;28;20044;-58
2024/03/18 10:18:41;;;;;;;1.17;0.60;;;;;;;;;;5068477;28;20058;-58
2024/03/18 10:21:08;;;;;;;1.98;0.70;;;;;;;;;;5066222;28;20174;-58
2024/03/18 10:23:33;;;;;;;1.52;0.70;;;;;;;;;;5066689;28;20472;-62
2024/03/18 10:26:02;;;;;;;2.92;0.60;;;;;;;;;;5069915;28;20054;-57
2024/03/18 10:28:27;;;;;;;1.35;0.52;;;;;;;;;;5065046;28;20036;-61
2024/03/18 10:30:55;;;;;;;2.15;0.93;;;;;;;;;;5050884;28;20052;-58
2024/03/18 10:33:22;;;;;;;4.20;0.50;;;;;;;;;;5067964;28;20032;-59
2024/03/18 10:35:49;;;;;;;2.22;0.60;;;;;;;;;;5070680;28;20044;-62
2024/03/18 10:38:22;;;;;;;2.40;0.70;;;;;;;;;;5067864;28;20037;-58
2024/03/18 10:40:47;;;;;;;;;;;;;;;;;;5069291;28;20116;-59
2024/03/18 10:43:14;;;;;;;1.80;0.80;;;;;;;;;;5069634;28;20026;-61
2024/03/18 10:45:47;;;;;;;2.42;0.80;;;;;;;;;;5069397;28;20037;-58
2024/03/18 10:48:16;;;;;;;1.35;0.47;;;;;;;;;;5069378;28;20479;-57
2024/03/18 10:50:44;;;;;;;2.92;0.65;;;;;;;;;;5077385;28;20040;-60
2024/03/18 10:53:24;;;;;;;2.60;0.70;;;;;;;;;;5068980;28;20020;-58
2024/03/18 10:55:52;;;;;;;1.50;0.60;;;;;;;;;;5064781;28;20123;-60
2024/03/18 10:58:19;;;;;;;2.38;0.70;;;;;;;;;;5068867;28;20025;-61
2024/03/18 11:00:45;;;;;;;2.45;0.75;;;;;;;;;;5068503;28;20245;-58
2024/03/18 11:03:14;;;;;;;0.85;0.50;;;;;;;;;;5067760;28;20646;-57
2024/03/18 11:05:46;;;;;;;0.80;0.50;;;;;;;;;;5068040;28;20032;-61
2024/03/18 11:08:12;;;;;;;2.73;0.80;;;;;;;;;;5068029;28;20515;-57
2024/03/18 11:10:38;;;;;;;1.83;0.60;;;;;;;;;;5067990;28;20540;-59
2024/03/18 11:13:33;;;;;;;1.05;0.55;;;;;;;;;;5067747;28;20037;-58
2024/03/18 11:16:04;;;;;;;0.93;0.50;;;;;;;;;;5051379;28;20048;-57
2024/03/18 11:18:30;;;;;;;1.52;0.50;;;;;;;;;;5067898;28;20040;-60
2024/03/18 11:20:58;;;;;;;2.00;0.60;;;;;;;;;;5068142;28;20676;-59
2024/03/18 11:23:29;;;;;;;0.88;0.50;;;;;;;;;;5067894;28;20044;-59
2024/03/18 11:26:03;;;;;;;0.93;0.60;;;;;;;;;;5067649;28;20032;-61
2024/03/18 11:28:33;;;;;;;3.25;0.50;;;;;;;;;;5067551;28;20874;-61
2024/03/18 11:30:59;;;;;;;2.50;0.70;;;;;;;;;;5066939;28;20103;-59
2024/03/18 11:33:26;;;;;;;1.08;0.50;;;;;;;;;;5067124;28;20123;-61
2024/03/18 11:35:53;;;;;;;0.50;0.40;;;;;;;;;;5067097;28;20032;-61
2024/03/18 11:38:19;;;;;;;1.05;0.50;;;;;;;;;;5049388;28;20170;-61
2024/03/18 11:40:44;;;;;;;1.25;0.60;;;;;;;;;;5068248;28;20055;-59
2024/03/18 11:43:10;;;;;;;0.98;0.50;;;;;;;;;;5066981;28;20052;-61
2024/03/18 11:45:38;;;;;;;0.77;0.47;;;;;;;;;;5067708;28;20120;-62
2024/03/18 11:48:06;;;;;;;1.13;0.50;;;;;;;;;;5064630;28;20409;-61
2024/03/18 11:50:36;;;;;;;0.45;0.40;;;;;;;;;;5067162;28;20483;-61
2024/03/18 11:53:03;;;;;;;0.50;0.50;;;;;;;;;;5065130;28;20060;-60
2024/03/18 11:55:29;;;;;;;1.02;0.50;;;;;;;;;;5060450;28;20036;-59
2024/03/18 11:57:56;;;;;;;1.17;0.43;;;;;;;;;;5063269;28;20093;-61
2024/03/18 12:00:21;;;;;;;0.93;0.40;;;;;;;;;;5062397;28;20068;-60
2024/03/18 12:02:47;;;;;;;0.43;0.30;;;;;;;;;;5066630;28;20056;-58
2024/03/18 12:05:12;;;;;;;2.70;0.60;;;;;;;;;;5065862;28;20043;-59
2024/03/18 12:07:38;;;;;;;0.98;0.50;;;;;;;;;;5066920;28;20036;-60
2024/03/18 12:10:04;;;;;;;0.52;0.40;;;;;;;;;;5067017;28;20082;-61
2024/03/18 12:12:32;;;;;;;1.13;0.57;;;;;;;;;;5066006;28;20041;-62
2024/03/18 12:14:58;;;;;;;1.55;0.68;;;;;;;;;;5066462;28;20539;-60
2024/03/18 12:17:23;;;;;;;2.45;0.50;;;;;;;;;;5048857;28;20086;-60
2024/03/18 12:19:53;;;;;;;0.77;0.50;;;;;;;;;;5066292;28;20076;-60
2024/03/18 12:22:21;;;;;;;1.20;0.50;;;;;;;;;;5066677;28;20068;-59
2024/03/18 12:30:18;;;;;;;2.53;0.60;;;;;;;;;;5063784;28;20097;-60
2024/03/18 12:32:47;;;;;;;0.80;0.30;;;;;;;;;;5067212;28;20047;-61
2024/03/18 12:35:12;;;;;;;1.15;0.40;;;;;;;;;;5061227;28;20048;-59
2024/03/18 12:37:48;;;;;;;2.30;0.55;;;;;;;;;;5065797;28;20038;-59
2024/03/18 12:40:16;;;;;;;0.65;0.40;;;;;;;;;;5066749;28;20113;-59
2024/03/18 12:42:56;;;;;;;0.55;0.40;;;;;;;;;;5066321;28;20040;-61
2024/03/18 12:45:23;;;;;;;0.40;0.40;;;;;;;;;;5068148;28;20505;-59
2024/03/18 12:47:51;;;;;;;0.70;0.40;;;;;;;;;;5064862;28;20448;-60
2024/03/18 12:50:18;;;;;;;0.95;0.40;;;;;;;;;;5065780;28;20029;-62
2024/03/18 12:52:44;;;;;;;0.70;0.40;;;;;;;;;;5060314;28;20040;-61
2024/03/18 12:55:10;;;;;;;0.88;0.50;;;;;;;;;;5065466;28;20028;-62
2024/03/18 12:57:38;;;;;;;0.38;0.32;;;;;;;;;;5065617;28;20462;-59
2024/03/18 13:00:08;;;;;;;1.02;0.40;;;;;;;;;;5067564;28;20106;-58
2024/03/18 13:02:34;;;;;;;0.80;0.47;;;;;;;;;;5065633;28;20032;-59
2024/03/18 13:05:00;;;;;;;0.65;0.40;;;;;;;;;;5066026;28;20032;-61
2024/03/18 13:07:25;;;;;;;0.47;0.32;;;;;;;;;;5065928;28;20056;-61
2024/03/18 13:09:50;;;;;;;1.30;0.50;;;;;;;;;;5065030;28;20068;-60
2024/03/18 13:12:16;;;;;;;0.75;0.40;;;;;;;;;;5065844;28;20024;-60
2024/03/18 13:14:41;;;;;;;1.08;0.50;;;;;;;;;;5064633;28;20408;-60
2024/03/18 13:17:06;;;;;;;0.60;0.40;;;;;;;;;;5072352;28;20086;-58
2024/03/18 13:19:33;;;;;;;1.27;0.47;;;;;;;;;;5074698;28;20064;-59
2024/03/18 13:21:58;;;;;;;1.00;0.50;;;;;;;;;;5068547;28;20078;-59
2024/03/18 13:24:27;;;;;;;1.08;0.40;;;;;;;;;;5065007;28;20032;-59
2024/03/18 13:26:52;;;;;;;0.75;0.45;;;;;;;;;;5067533;28;20032;-60
2024/03/18 13:29:22;;;;;;;2.90;0.50;;;;;;;;;;5064635;28;20086;-60
2024/03/18 13:31:51;;;;;;;0.82;0.50;;;;;;;;;;5065148;28;20115;-60
2024/03/18 13:34:17;;;;;;;1.65;0.50;;;;;;;;;;5073722;28;20167;-57
2024/03/18 13:36:42;;;;;;;2.88;0.60;;;;;;;;;;5067306;28;20115;-59
2024/03/18 13:39:07;;;;;;;1.10;0.30;;;;;;;;;;5064973;28;20041;-60
2024/03/18 13:41:33;;;;;;;2.83;0.40;;;;;;;;;;5072429;28;20052;-59
2024/03/18 13:43:58;;;;;;;2.20;0.50;;;;;;;;;;5068118;28;20041;-57
2024/03/18 13:46:23;;;;;;;2.67;0.70;;;;;;;;;;5065667;28;20065;-60
2024/03/18 13:48:49;;;;;;;1.20;0.60;;;;;;;;;;5064728;28;20062;-57
2024/03/18 13:51:15;;;;;;;0.80;0.40;;;;;;;;;;5069433;28;20119;-59
2024/03/18 13:53:41;;;;;;;3.13;0.50;;;;;;;;;;5065974;28;20444;-59
2024/03/18 13:56:07;;;;;;;2.70;0.52;;;;;;;;;;5067547;28;20040;-60
2024/03/18 13:58:32;;;;;;;0.90;0.40;;;;;;;;;;5065683;28;20403;-60
2024/03/18 14:00:58;;;;;;;2.05;0.60;;;;;;;;;;5063905;28;20040;-58
2024/03/18 14:03:23;;;;;;;0.63;0.43;;;;;;;;;;5060906;28;20040;-59
2024/03/18 14:05:49;;;;;;;1.00;0.40;;;;;;;;;;5065866;28;20037;-57
2024/03/18 14:08:14;;;;;;;0.63;0.40;;;;;;;;;;5066548;28;20059;-59
2024/03/18 14:10:39;;;;;;;1.08;0.50;;;;;;;;;;5068836;28;20028;-58
2024/03/18 14:13:06;;;;;;;1.02;0.47;;;;;;;;;;5065599;28;20404;-59
2024/03/18 14:15:31;;;;;;;1.20;0.52;;;;;;;;;;5066120;28;20032;-60
2024/03/18 14:17:57;;;;;;;1.35;0.50;;;;;;;;;;5065759;28;20091;-60
2024/03/18 14:20:23;;;;;;;3.13;1.02;;;;;;;;;;5066331;28;20049;-60
2024/03/18 14:22:48;;;;;;;0.35;0.30;;;;;;;;;;5066109;28;20046;-59
2024/03/18 14:25:18;;;;;;;2.53;0.68;;;;;;;;;;5065486;28;20369;-60
2024/03/18 14:27:48;;;;;;;0.70;0.32;;;;;;;;;;5065628;28;20043;-60
2024/03/18 14:30:13;;;;;;;1.55;0.55;;;;;;;;;;5065659;28;20028;-60
2024/03/18 14:32:38;;;;;;;2.28;0.63;;;;;;;;;;5065605;28;20040;-59
2024/03/18 14:35:04;;;;;;;2.92;0.68;;;;;;;;;;5065181;28;20074;-60
2024/03/18 14:37:30;;;;;;;1.48;0.57;;;;;;;;;;5066303;28;20028;-59
2024/03/18 14:39:55;;;;;;;1.05;0.50;;;;;;;;;;5065453;28;20276;-60
2024/03/18 14:42:20;;;;;;;2.33;0.50;;;;;;;;;;5064953;28;20043;-58
2024/03/18 14:44:46;;;;;;;2.33;0.57;;;;;;;;;;5065457;28;20478;-58